createdAt,value
2019-01-29T00:01:19.068Z,97.10
2019-01-29T00:03:46.955Z,97.20
2019-01-29T00:06:14.845Z,97.00
2019-01-29T00:08:43.084Z,96.90
2019-01-29T00:11:10.957Z,96.90
2019-01-29T00:13:38.840Z,97.10
2019-01-29T00:16:06.894Z,97.50
2019-01-29T00:18:35.028Z,97.90
2019-01-29T00:21:03.161Z,97.70
2019-01-29T00:23:31.039Z,97.80
2019-01-29T00:25:58.906Z,98.00
2019-01-29T00:28:27.110Z,97.60
2019-01-29T00:30:55.078Z,97.60
2019-01-29T00:33:22.940Z,97.50
2019-01-29T00:35:50.813Z,97.30
2019-01-29T00:38:18.708Z,97.20
2019-01-29T00:40:46.595Z,97.30
2019-01-29T00:43:14.484Z,97.20
2019-01-29T00:45:42.597Z,97.10
2019-01-29T00:48:10.564Z,97.10
2019-01-29T00:50:38.464Z,97.20
2019-01-29T00:53:06.342Z,97.60
2019-01-29T00:55:34.753Z,97.70
2019-01-29T00:58:02.870Z,97.80
2019-01-29T01:00:31.241Z,97.90
2019-01-29T01:02:59.368Z,98.20
2019-01-29T01:05:27.448Z,98.10
2019-01-29T01:07:55.661Z,98.30
2019-01-29T01:10:23.624Z,98.30
2019-01-29T01:12:51.512Z,98.20
2019-01-29T01:15:19.598Z,98.50
2019-01-29T01:17:47.544Z,98.60
2019-01-29T01:20:16.477Z,98.40
2019-01-29T01:22:50.656Z,98.40
2019-01-29T01:25:14.971Z,98.20
2019-01-29T01:27:42.840Z,98.50
2019-01-29T01:30:11.948Z,98.90
2019-01-29T01:32:39.886Z,99.40
2019-01-29T01:35:07.960Z,99.30
2019-01-29T01:37:35.877Z,99.20
2019-01-29T01:40:05.572Z,99.10
2019-01-29T01:42:33.512Z,99.20
2019-01-29T01:45:01.428Z,99.00
2019-01-29T01:47:29.292Z,99.50
2019-01-29T01:49:57.433Z,99.60
2019-01-29T01:52:25.336Z,99.20
2019-01-29T01:54:53.196Z,99.00
2019-01-29T01:57:21.104Z,98.60
2019-01-29T01:59:49.004Z,98.60
2019-01-29T02:02:16.907Z,98.70
2019-01-29T02:04:45.014Z,98.60
2019-01-29T02:07:12.888Z,98.40
2019-01-29T02:09:40.814Z,98.20
2019-01-29T02:12:08.752Z,97.90
2019-01-29T02:14:36.624Z,97.70
2019-01-29T02:17:04.859Z,97.40
2019-01-29T02:19:32.744Z,97.20
2019-01-29T02:22:00.632Z,97.00
2019-01-29T02:24:29.278Z,96.80
2019-01-29T02:26:57.179Z,96.70
2019-01-29T02:29:25.169Z,96.70
2019-01-29T02:31:53.107Z,96.40
2019-01-29T02:34:21.229Z,96.30
2019-01-29T02:36:49.220Z,96.40
2019-01-29T02:39:17.390Z,96.30
2019-01-29T02:41:45.332Z,96.30
2019-01-29T02:44:13.307Z,96.10
2019-01-29T02:46:41.464Z,96.10
2019-01-29T02:49:09.368Z,96.20
2019-01-29T02:51:37.503Z,96.40
2019-01-29T02:54:05.476Z,96.70
2019-01-29T02:56:33.351Z,96.70
2019-01-29T02:59:01.331Z,96.90
2019-01-29T03:01:29.288Z,96.80
2019-01-29T03:03:57.360Z,97.10
2019-01-29T03:06:25.266Z,97.20
2019-01-29T03:08:53.148Z,97.90
2019-01-29T03:11:21.053Z,97.80
2019-01-29T03:13:48.970Z,97.90
2019-01-29T03:16:16.916Z,97.90
2019-01-29T03:18:44.820Z,97.80
2019-01-29T03:21:12.733Z,97.50
2019-01-29T03:23:40.710Z,97.10
2019-01-29T03:26:09.055Z,96.80
2019-01-29T03:28:36.953Z,96.30
2019-01-29T03:31:05.166Z,95.90
2019-01-29T03:33:33.295Z,95.50
2019-01-29T03:36:01.420Z,95.40
2019-01-29T03:38:29.320Z,95.30
2019-01-29T03:40:57.244Z,95.10
2019-01-29T03:43:25.140Z,95.10
2019-01-29T03:45:53.122Z,95.20
2019-01-29T03:48:21.260Z,95.60
2019-01-29T03:50:49.244Z,95.30
2019-01-29T03:53:17.145Z,95.30
2019-01-29T03:55:45.465Z,95.30
2019-01-29T03:58:13.365Z,95.30
2019-01-29T04:00:41.300Z,95.40
2019-01-29T04:03:09.716Z,95.50
2019-01-29T04:05:37.657Z,95.80
2019-01-29T04:08:05.901Z,96.10
2019-01-29T04:10:33.789Z,96.20
2019-01-29T04:13:01.738Z,96.10
2019-01-29T04:15:29.798Z,95.70
2019-01-29T04:17:58.790Z,95.50
2019-01-29T04:20:26.879Z,95.70
2019-01-29T04:22:54.845Z,95.50
2019-01-29T04:25:22.812Z,95.30
2019-01-29T04:27:50.744Z,95.10
2019-01-29T04:30:19.558Z,95.30
2019-01-29T04:32:47.438Z,95.30
2019-01-29T04:35:15.472Z,95.10
2019-01-29T04:37:43.726Z,95.10
2019-01-29T04:40:12.254Z,95.10
2019-01-29T04:42:40.192Z,95.10
2019-01-29T04:45:09.123Z,95.00
2019-01-29T04:47:37.082Z,95.20
2019-01-29T04:50:05.785Z,95.20
2019-01-29T04:52:33.737Z,95.30
2019-01-29T04:55:01.945Z,95.40
2019-01-29T04:57:30.122Z,95.60
2019-01-29T04:59:58.009Z,96.00
2019-01-29T05:02:25.888Z,96.30
2019-01-29T05:04:54.169Z,96.30
2019-01-29T05:07:22.334Z,96.30
2019-01-29T05:09:50.218Z,96.50
2019-01-29T05:12:18.381Z,96.30
2019-01-29T05:14:46.772Z,96.30
2019-01-29T05:17:14.632Z,96.10
2019-01-29T05:19:42.785Z,96.00
2019-01-29T05:22:10.725Z,96.00
2019-01-29T05:24:39.084Z,96.40
2019-01-29T05:27:07.072Z,96.80
2019-01-29T05:29:35.178Z,96.80
2019-01-29T05:32:03.125Z,96.60
2019-01-29T05:34:30.999Z,96.30
2019-01-29T05:36:58.966Z,96.20
2019-01-29T05:39:26.921Z,96.60
2019-01-29T05:41:54.804Z,96.60
2019-01-29T05:44:22.746Z,96.40
2019-01-29T05:46:50.695Z,96.20
2019-01-29T05:49:18.581Z,95.90
2019-01-29T05:51:46.486Z,95.70
2019-01-29T05:54:16.332Z,95.50
2019-01-29T05:56:44.106Z,95.40
2019-01-29T05:59:12.001Z,95.50
2019-01-29T06:01:39.954Z,95.30
2019-01-29T06:04:07.953Z,95.30
2019-01-29T06:06:35.848Z,95.20
2019-01-29T06:09:06.054Z,95.30
2019-01-29T06:11:33.980Z,95.30
2019-01-29T06:14:01.836Z,95.60
2019-01-29T06:16:29.719Z,95.60
2019-01-29T06:18:57.892Z,95.90
2019-01-29T06:21:26.246Z,96.00
2019-01-29T06:23:54.121Z,96.00
2019-01-29T06:26:22.113Z,95.90
2019-01-29T06:28:50.050Z,95.80
2019-01-29T06:31:20.464Z,96.20
2019-01-29T06:33:48.445Z,96.20
2019-01-29T06:36:16.343Z,96.60
2019-01-29T06:38:44.510Z,97.00
2019-01-29T06:41:12.402Z,97.10
2019-01-29T06:43:40.302Z,97.80
2019-01-29T06:46:08.532Z,97.90
2019-01-29T06:48:36.527Z,98.00
2019-01-29T06:51:04.465Z,98.20
2019-01-29T06:53:32.697Z,98.10
2019-01-29T06:56:00.650Z,98.30
2019-01-29T06:58:28.539Z,98.10
2019-01-29T07:00:56.754Z,98.00
2019-01-29T07:03:24.660Z,97.90
2019-01-29T07:05:52.644Z,98.00
2019-01-29T07:08:20.520Z,98.20
2019-01-29T07:10:48.472Z,98.50
2019-01-29T07:13:16.343Z,98.70
2019-01-29T07:16:10.099Z,98.90
2019-01-29T07:18:56.355Z,98.90
2019-01-29T07:21:24.406Z,99.00
2019-01-29T07:23:52.624Z,99.10
2019-01-29T07:26:20.592Z,99.30
2019-01-29T07:28:48.480Z,99.60
2019-01-29T07:31:17.992Z,99.80
2019-01-29T07:33:45.854Z,99.80
2019-01-29T07:36:13.732Z,99.70
2019-01-29T07:38:41.604Z,99.80
2019-01-29T07:41:09.546Z,99.40
2019-01-29T07:43:37.592Z,98.60
2019-01-29T07:46:05.745Z,98.10
2019-01-29T07:48:33.703Z,97.50
2019-01-29T07:51:01.644Z,97.10
2019-01-29T07:53:29.687Z,96.80
2019-01-29T07:55:57.627Z,96.50
2019-01-29T07:58:25.820Z,96.20
2019-01-29T08:00:53.940Z,96.20
2019-01-29T08:03:21.821Z,95.60
2019-01-29T08:05:50.026Z,95.50
2019-01-29T08:08:17.911Z,95.60
2019-01-29T08:10:45.847Z,95.60
2019-01-29T08:13:13.893Z,95.80
2019-01-29T08:15:41.753Z,95.50
2019-01-29T08:18:10.204Z,95.40
2019-01-29T08:20:38.244Z,95.20
2019-01-29T08:23:06.194Z,94.40
2019-01-29T08:25:34.137Z,93.90
2019-01-29T08:28:02.009Z,93.90
2019-01-29T08:30:29.936Z,93.90
2019-01-29T08:32:58.156Z,93.30
2019-01-29T08:35:26.146Z,92.60
2019-01-29T08:37:54.024Z,92.60
2019-01-29T08:40:22.129Z,92.50
2019-01-29T08:42:50.084Z,92.30
2019-01-29T08:45:18.061Z,92.40
2019-01-29T08:47:46.121Z,92.40
2019-01-29T08:50:15.368Z,92.40
2019-01-29T08:52:43.250Z,92.60
2019-01-29T08:55:11.450Z,92.40
2019-01-29T08:57:39.605Z,92.30
2019-01-29T09:00:08.025Z,92.60
2019-01-29T09:02:35.899Z,92.20
2019-01-29T09:05:04.404Z,91.90
2019-01-29T09:07:32.364Z,91.90
2019-01-29T09:10:00.367Z,91.80
2019-01-29T09:12:28.272Z,91.70
2019-01-29T09:14:56.141Z,91.80
2019-01-29T09:17:24.005Z,91.80
2019-01-29T09:19:51.960Z,91.80
2019-01-29T09:22:19.828Z,91.70
2019-01-29T09:24:47.708Z,91.40
2019-01-29T09:27:15.656Z,90.90
2019-01-29T09:29:43.532Z,90.90
2019-01-29T09:32:11.473Z,90.60
2019-01-29T09:34:39.365Z,90.40
2019-01-29T09:37:07.246Z,90.20
2019-01-29T09:39:35.194Z,89.30
2019-01-29T09:42:03.357Z,89.60
2019-01-29T09:44:31.328Z,90.00
2019-01-29T09:46:59.549Z,89.30
2019-01-29T09:49:27.441Z,88.30
2019-01-29T09:51:55.383Z,87.60
2019-01-29T09:54:23.680Z,87.10
2019-01-29T09:56:51.621Z,86.40
2019-01-29T09:59:21.380Z,85.30
2019-01-29T10:01:49.353Z,85.10
2019-01-29T10:04:17.261Z,84.70
2019-01-29T10:06:45.254Z,84.40
2019-01-29T10:09:13.172Z,83.00
2019-01-29T10:11:41.080Z,82.30
2019-01-29T10:14:09.344Z,80.50
2019-01-29T10:16:37.220Z,79.10
2019-01-29T10:19:05.178Z,78.30
2019-01-29T10:21:33.084Z,77.20
2019-01-29T10:24:01.325Z,77.40
2019-01-29T10:26:29.204Z,75.70
2019-01-29T10:28:57.091Z,75.50
2019-01-29T10:31:24.959Z,75.40
2019-01-29T10:33:52.870Z,74.40
2019-01-29T10:36:21.060Z,74.60
2019-01-29T10:38:49.282Z,74.00
2019-01-29T10:41:17.261Z,73.00
2019-01-29T10:43:45.176Z,70.40
2019-01-29T10:46:13.116Z,71.30
2019-01-29T10:48:41.697Z,71.50
2019-01-29T10:51:09.564Z,71.90
2019-01-29T10:53:37.692Z,72.10
2019-01-29T10:56:05.649Z,72.50
2019-01-29T10:58:33.545Z,71.60
2019-01-29T11:01:01.481Z,72.00
2019-01-29T11:03:29.432Z,73.00
2019-01-29T11:05:57.412Z,72.80
2019-01-29T11:08:25.706Z,74.00
2019-01-29T11:10:53.841Z,74.00
2019-01-29T11:13:21.700Z,72.70
2019-01-29T11:15:49.660Z,73.00
2019-01-29T11:18:17.604Z,72.90
2019-01-29T11:20:46.320Z,72.30
2019-01-29T11:23:14.289Z,73.30
2019-01-29T11:25:42.353Z,72.20
2019-01-29T11:28:10.315Z,72.30
2019-01-29T11:30:38.289Z,72.10
2019-01-29T11:33:06.672Z,72.20
2019-01-29T11:35:34.646Z,71.40
2019-01-29T11:38:02.797Z,69.90
2019-01-29T11:40:31.128Z,69.40
2019-01-29T11:42:59.387Z,68.60
2019-01-29T11:45:28.595Z,68.00
2019-01-29T11:47:56.566Z,67.50
2019-01-29T11:50:24.819Z,67.50
2019-01-29T11:52:52.760Z,67.40
2019-01-29T11:55:20.732Z,68.50
2019-01-29T11:57:48.610Z,67.20
2019-01-29T12:00:20.653Z,67.60
2019-01-29T12:02:48.540Z,66.40
2019-01-29T12:05:16.509Z,66.50
2019-01-29T12:07:45.049Z,66.10
2019-01-29T12:10:13.257Z,66.40
2019-01-29T12:12:41.193Z,66.20
2019-01-29T12:15:09.753Z,66.00
2019-01-29T12:17:37.634Z,67.00
2019-01-29T12:20:06.169Z,65.20
2019-01-29T12:22:34.596Z,64.60
2019-01-29T12:25:02.480Z,64.10
2019-01-29T12:27:30.761Z,63.40
2019-01-29T12:29:58.832Z,61.30
2019-01-29T12:32:27.000Z,61.10
2019-01-29T12:34:54.897Z,60.50
2019-01-29T12:37:22.762Z,60.90
2019-01-29T12:39:50.651Z,60.80
2019-01-29T12:42:18.648Z,58.00
2019-01-29T12:44:46.569Z,57.10
2019-01-29T12:47:14.529Z,56.80
2019-01-29T12:49:42.700Z,58.20
2019-01-29T12:52:29.761Z,57.90
2019-01-29T12:54:57.688Z,59.60
2019-01-29T12:57:25.636Z,58.00
2019-01-29T12:59:53.603Z,58.10
2019-01-29T13:02:21.540Z,58.10
2019-01-29T13:04:49.458Z,59.10
2019-01-29T13:07:17.333Z,59.60
2019-01-29T13:09:45.220Z,59.80
2019-01-29T13:12:13.103Z,59.70
2019-01-29T13:14:41.082Z,59.90
2019-01-29T13:17:09.261Z,60.10
2019-01-29T13:19:37.244Z,60.90
2019-01-29T13:22:05.437Z,62.30
2019-01-29T13:24:33.341Z,63.80
2019-01-29T13:27:01.296Z,64.00
2019-01-29T13:29:29.151Z,61.90
2019-01-29T13:31:57.060Z,60.70
2019-01-29T13:34:24.940Z,60.50
2019-01-29T13:36:52.913Z,61.10
2019-01-29T13:39:20.784Z,62.30
2019-01-29T13:41:48.684Z,64.00
2019-01-29T13:44:16.588Z,62.20
2019-01-29T13:46:44.486Z,59.70
2019-01-29T13:49:12.620Z,57.80
2019-01-29T13:51:40.589Z,57.80
2019-01-29T13:54:08.490Z,57.30
2019-01-29T13:56:38.932Z,56.90
2019-01-29T13:59:06.159Z,57.90
2019-01-29T14:01:34.125Z,57.90
2019-01-29T14:04:06.204Z,57.90
2019-01-29T14:06:31.632Z,58.20
2019-01-29T14:08:59.744Z,57.90
2019-01-29T14:11:27.719Z,57.20
2019-01-29T14:13:55.623Z,55.40
2019-01-29T14:16:23.564Z,54.50
2019-01-29T14:18:51.429Z,54.80
2019-01-29T14:21:19.342Z,53.50
2019-01-29T14:23:48.020Z,53.80
2019-01-29T14:26:15.916Z,54.00
2019-01-29T14:28:43.800Z,54.50
2019-01-29T14:31:11.792Z,56.10
2019-01-29T14:33:39.657Z,57.10
2019-01-29T14:36:16.380Z,56.90
2019-01-29T14:38:46.105Z,57.20
2019-01-29T14:41:14.521Z,58.10
2019-01-29T14:43:46.577Z,58.50
2019-01-29T14:46:14.577Z,58.80
2019-01-29T14:48:42.459Z,58.50
2019-01-29T14:51:10.420Z,57.80
2019-01-29T14:53:38.461Z,57.90
2019-01-29T14:56:06.464Z,58.10
2019-01-29T14:58:34.340Z,58.90
2019-01-29T15:01:02.606Z,59.70
2019-01-29T15:03:30.559Z,60.90
2019-01-29T15:05:58.445Z,64.90
2019-01-29T15:08:26.313Z,67.10
2019-01-29T15:10:54.282Z,68.20
2019-01-29T15:13:22.181Z,69.40
2019-01-29T15:15:53.277Z,70.50
2019-01-29T15:18:24.797Z,69.30
2019-01-29T15:20:52.931Z,68.60
2019-01-29T15:23:20.790Z,68.40
2019-01-29T15:25:48.744Z,68.90
2019-01-29T15:28:16.644Z,68.80
2019-01-29T15:30:44.540Z,69.10
2019-01-29T15:33:12.513Z,68.70
2019-01-29T15:35:40.396Z,69.30
2019-01-29T15:38:08.597Z,69.90
2019-01-29T15:40:36.560Z,69.90
2019-01-29T15:43:04.652Z,70.30
2019-01-29T15:45:32.634Z,70.80
2019-01-29T15:48:00.501Z,71.00
2019-01-29T15:50:28.639Z,70.90
2019-01-29T15:52:56.516Z,71.70
2019-01-29T15:55:24.448Z,72.70
2019-01-29T15:57:52.677Z,73.50
2019-01-29T16:00:21.870Z,75.00
2019-01-29T16:02:49.834Z,76.30
2019-01-29T16:05:19.609Z,79.10
2019-01-29T16:07:47.560Z,80.00
2019-01-29T16:10:16.928Z,80.40
2019-01-29T16:12:44.918Z,81.40
2019-01-29T16:15:13.564Z,82.40
2019-01-29T16:17:41.513Z,84.20
2019-01-29T16:20:10.568Z,85.30
2019-01-29T16:22:38.506Z,85.90
2019-01-29T16:25:07.628Z,87.10
2019-01-29T16:27:35.496Z,87.90
2019-01-29T16:30:03.611Z,88.80
2019-01-29T16:32:31.776Z,88.50
2019-01-29T16:34:59.669Z,88.30
2019-01-29T16:37:27.604Z,88.30
2019-01-29T16:39:55.524Z,89.00
2019-01-29T16:42:23.498Z,88.70
2019-01-29T16:44:51.356Z,88.80
2019-01-29T16:47:19.745Z,89.10
2019-01-29T16:49:47.665Z,88.90
2019-01-29T16:52:15.812Z,88.90
2019-01-29T16:54:43.797Z,89.00
2019-01-29T16:57:12.157Z,90.00
2019-01-29T16:59:40.048Z,90.40
2019-01-29T17:02:07.985Z,90.60
2019-01-29T17:04:35.892Z,91.00
2019-01-29T17:07:03.927Z,91.40
2019-01-29T17:09:31.789Z,91.70
2019-01-29T17:12:00.214Z,91.90
2019-01-29T17:14:28.088Z,92.30
2019-01-29T17:16:56.209Z,92.80
2019-01-29T17:19:24.118Z,92.90
2019-01-29T17:21:51.983Z,93.00
2019-01-29T17:24:20.509Z,93.30
2019-01-29T17:26:48.377Z,93.60
2019-01-29T17:29:16.252Z,93.50
2019-01-29T17:31:44.196Z,93.80
2019-01-29T17:34:12.065Z,93.70
2019-01-29T17:36:39.964Z,93.90
2019-01-29T17:39:08.277Z,93.80
2019-01-29T17:41:36.152Z,93.90
2019-01-29T17:44:04.600Z,93.90
2019-01-29T17:46:32.833Z,94.20
2019-01-29T17:49:00.757Z,94.30
2019-01-29T17:51:28.649Z,94.60
2019-01-29T17:53:56.540Z,94.90
2019-01-29T17:56:24.613Z,94.90
2019-01-29T17:58:52.509Z,94.80
2019-01-29T18:01:21.621Z,94.90
2019-01-29T18:03:49.525Z,94.70
2019-01-29T18:06:17.464Z,94.80
2019-01-29T18:08:49.958Z,94.90
2019-01-29T18:11:15.053Z,94.80
2019-01-29T18:13:42.949Z,95.00
2019-01-29T18:16:41.970Z,95.10
2019-01-29T18:19:09.933Z,94.90
2019-01-29T18:21:37.876Z,95.00
2019-01-29T18:24:05.865Z,95.20
2019-01-29T18:26:33.865Z,95.30
2019-01-29T18:29:01.745Z,95.10
2019-01-29T18:31:29.655Z,95.10
2019-01-29T18:33:57.775Z,95.00
2019-01-29T18:36:25.708Z,95.10
2019-01-29T18:38:53.616Z,95.20
2019-01-29T18:41:21.533Z,95.30
2019-01-29T18:43:49.502Z,95.30
2019-01-29T18:46:17.364Z,95.20
2019-01-29T18:48:45.848Z,95.30
2019-01-29T18:51:13.858Z,95.50
2019-01-29T18:53:41.888Z,95.20
2019-01-29T18:56:10.237Z,95.40
2019-01-29T18:58:38.407Z,96.00
2019-01-29T19:01:06.636Z,96.00
2019-01-29T19:03:34.653Z,96.00
2019-01-29T19:06:02.756Z,96.10
2019-01-29T19:08:30.653Z,96.20
2019-01-29T19:10:58.824Z,96.70
2019-01-29T19:13:26.755Z,97.00
2019-01-29T19:15:54.628Z,97.00
2019-01-29T19:18:22.748Z,97.10
2019-01-29T19:20:50.646Z,96.90
2019-01-29T19:23:18.844Z,96.60
2019-01-29T19:25:46.718Z,96.80
2019-01-29T19:28:21.652Z,96.30
2019-01-29T19:30:44.324Z,95.50
2019-01-29T19:33:12.354Z,94.60
2019-01-29T19:35:40.340Z,94.00
2019-01-29T19:38:08.291Z,93.80
2019-01-29T19:40:36.200Z,93.60
2019-01-29T19:43:04.446Z,93.20
2019-01-29T19:45:32.952Z,93.00
2019-01-29T19:48:01.077Z,93.20
2019-01-29T19:50:29.709Z,93.70
2019-01-29T19:52:59.186Z,93.60
2019-01-29T19:55:27.361Z,94.00
2019-01-29T19:57:55.380Z,93.90
2019-01-29T20:00:27.232Z,93.70
2019-01-29T20:02:56.963Z,93.80
2019-01-29T20:05:24.955Z,93.80
2019-01-29T20:07:52.895Z,93.50
2019-01-29T20:10:21.324Z,93.50
2019-01-29T20:12:49.318Z,93.10
2019-01-29T20:15:17.560Z,92.70
2019-01-29T20:17:45.950Z,92.80
2019-01-29T20:20:21.192Z,92.60
2019-01-29T20:22:49.388Z,92.50
2019-01-29T20:25:17.309Z,92.40
2019-01-29T20:27:45.596Z,92.10
2019-01-29T20:30:19.396Z,92.10
2019-01-29T20:32:53.238Z,91.90
2019-01-29T20:35:16.883Z,91.50
2019-01-29T20:37:45.077Z,91.70
2019-01-29T20:40:13.978Z,91.90
2019-01-29T20:42:41.884Z,92.00
2019-01-29T20:45:10.458Z,92.00
2019-01-29T20:47:38.344Z,92.10
2019-01-29T20:50:07.786Z,92.40
2019-01-29T20:52:35.661Z,92.30
2019-01-29T20:55:04.081Z,92.70
2019-01-29T20:57:31.965Z,92.50
2019-01-29T20:59:59.953Z,92.10
2019-01-29T21:02:27.964Z,92.60
2019-01-29T21:04:55.912Z,92.60
2019-01-29T21:07:23.801Z,92.20
2019-01-29T21:09:51.692Z,92.60
2019-01-29T21:12:20.107Z,92.20
2019-01-29T21:14:48.148Z,92.20
2019-01-29T21:17:16.033Z,92.30
2019-01-29T21:19:43.919Z,92.40
2019-01-29T21:22:12.109Z,93.00
2019-01-29T21:24:39.980Z,93.50
2019-01-29T21:27:07.952Z,93.70
2019-01-29T21:29:35.828Z,93.70
2019-01-29T21:32:03.799Z,94.20
2019-01-29T21:34:31.668Z,94.00
2019-01-29T21:36:59.638Z,94.30
2019-01-29T21:39:27.557Z,94.70
2019-01-29T21:41:55.788Z,94.90
2019-01-29T21:44:24.000Z,94.60
2019-01-29T21:46:51.909Z,94.30
2019-01-29T21:49:19.809Z,94.20
2019-01-29T21:51:47.701Z,94.20
2019-01-29T21:54:15.872Z,94.70
2019-01-29T21:56:44.016Z,95.50
2019-01-29T21:59:13.369Z,95.20
2019-01-29T22:01:42.016Z,95.00
2019-01-29T22:04:09.928Z,94.80
2019-01-29T22:06:37.835Z,94.30
2019-01-29T22:09:07.240Z,94.70
2019-01-29T22:11:35.156Z,94.30
2019-01-29T22:14:03.404Z,93.70
2019-01-29T22:16:31.297Z,93.80
2019-01-29T22:18:59.193Z,93.50
2019-01-29T22:21:27.086Z,93.00
2019-01-29T22:23:54.952Z,92.80
2019-01-29T22:26:22.840Z,92.40
2019-01-29T22:28:50.789Z,92.20
2019-01-29T22:31:18.873Z,92.10
2019-01-29T22:33:46.939Z,91.90
2019-01-29T22:36:14.829Z,91.60
2019-01-29T22:38:42.734Z,91.40
2019-01-29T22:41:10.637Z,91.30
2019-01-29T22:43:38.552Z,90.60
2019-01-29T22:46:06.428Z,90.30
2019-01-29T22:48:34.369Z,90.20
2019-01-29T22:51:02.317Z,89.80
2019-01-29T22:53:30.488Z,89.50
2019-01-29T22:55:58.356Z,89.80
2019-01-29T22:58:26.320Z,89.80
2019-01-29T23:01:22.724Z,90.00
2019-01-29T23:03:52.924Z,90.20
2019-01-29T23:06:33.052Z,90.60
2019-01-29T23:09:01.008Z,91.00
2019-01-29T23:11:28.955Z,91.60
2019-01-29T23:13:56.912Z,92.10
2019-01-29T23:16:24.796Z,91.90
2019-01-29T23:18:52.752Z,91.60
2019-01-29T23:21:20.639Z,91.90
2019-01-29T23:23:48.848Z,91.80
2019-01-29T23:26:16.823Z,91.80
2019-01-29T23:28:44.688Z,92.50
2019-01-29T23:31:12.976Z,92.80
2019-01-29T23:33:40.863Z,92.70
2019-01-29T23:36:09.103Z,92.60
2019-01-29T23:38:36.995Z,92.60
2019-01-29T23:41:05.038Z,92.80
2019-01-29T23:43:32.912Z,93.10
2019-01-29T23:46:00.796Z,93.50
2019-01-29T23:48:28.695Z,93.80
2019-01-29T23:50:56.627Z,94.10
2019-01-29T23:53:24.509Z,94.40
2019-01-29T23:55:52.385Z,94.80
2019-01-29T23:58:20.349Z,95.20
